Time;durP1;ratioP1;P1;durP2;ratioP2;P2;SDS_P1;SDS_P2;PMS_P1;PMS_P2;Temp;Humidity;BMP_temperature;BMP_pressure;BME280_temperature;BME280_humidity;BME280_pressure;Samples;Min_cycle;Max_cycle;Signal;HPM_P1;HPM_P2
2022/03/31 00:00:16;;;;;;;7.85;3.08;;;;;;;;;;5001283;28;20125;-69
2022/03/31 00:02:43;;;;;;;9.77;3.58;;;;;;;;;;4996943;28;20582;-68
2022/03/31 00:05:09;;;;;;;10.98;3.03;;;9.10;99.90;;;;;;4998081;28;20027;-68
2022/03/31 00:07:35;;;;;;;12.50;4.50;;;9.10;99.90;;;;;;4999299;28;20109;-68
2022/03/31 00:10:00;;;;;;;7.43;3.72;;;;;;;;;;4999041;28;20114;-68
2022/03/31 00:12:26;;;;;;;5.75;2.97;;;9.30;99.90;;;;;;5000149;28;20033;-67
2022/03/31 00:14:52;;;;;;;13.23;5.25;;;;;;;;;;4998521;28;20037;-68
2022/03/31 00:17:19;;;;;;;6.82;4.03;;;;;;;;;;4998107;28;20030;-68
2022/03/31 00:19:44;;;;;;;12.60;3.53;;;9.50;99.90;;;;;;4998385;28;20040;-68
2022/03/31 00:22:10;;;;;;;20.13;3.95;;;;;;;;;;4997319;28;20109;-67
2022/03/31 00:24:36;;;;;;;14.30;4.63;;;9.60;99.90;;;;;;4998547;28;20027;-68
2022/03/31 00:27:02;;;;;;;11.10;4.45;;;;;;;;;;4999516;28;20030;-67
2022/03/31 00:29:28;;;;;;;12.30;4.05;;;;;;;;;;4998307;28;20041;-68
2022/03/31 00:31:54;;;;;;;6.97;3.42;;;;;;;;;;4980171;28;20080;-68
2022/03/31 00:34:21;;;;;;;10.10;4.63;;;;;;;;;;4996716;28;20026;-68
2022/03/31 00:36:46;;;;;;;5.18;3.20;;;9.70;99.90;;;;;;4998535;28;20040;-68
2022/03/31 00:39:32;;;;;;;9.88;3.90;;;;;;;;;;4999909;28;20411;-68
2022/03/31 00:41:59;;;;;;;6.68;4.55;;;;;;;;;;4998432;28;20052;-68
2022/03/31 00:44:25;;;;;;;12.27;4.50;;;;;;;;;;4997547;28;20073;-68
2022/03/31 00:46:52;;;;;;;11.35;5.15;;;;;;;;;;4998185;28;20637;-68
2022/03/31 00:49:19;;;;;;;11.43;5.22;;;9.20;99.90;;;;;;4998336;28;20088;-67
2022/03/31 00:51:46;;;;;;;11.52;4.20;;;;;;;;;;4999166;28;20121;-68
2022/03/31 00:54:13;;;;;;;3.63;2.83;;;;;;;;;;4998831;28;20500;-68
2022/03/31 00:56:41;;;;;;;8.75;4.07;;;;;;;;;;4997589;28;20109;-66
2022/03/31 00:59:08;;;;;;;10.35;3.75;;;;;;;;;;4997023;28;20030;-68
2022/03/31 01:01:34;;;;;;;9.57;3.25;;;;;;;;;;4998186;28;20030;-69
2022/03/31 01:04:01;;;;;;;16.48;4.07;;;;;;;;;;4980075;28;20117;-69
2022/03/31 01:06:26;;;;;;;7.55;3.15;;;9.90;99.90;;;;;;5000566;28;20022;-67
2022/03/31 01:08:52;;;;;;;12.13;3.92;;;;;;;;;;4998159;28;20092;-69
2022/03/31 01:11:19;;;;;;;5.07;4.20;;;9.90;99.90;;;;;;4996597;28;20040;-68
2022/03/31 01:13:45;;;;;;;7.68;3.50;;;10.00;99.90;;;;;;4997292;28;20487;-68
2022/03/31 01:16:10;;;;;;;9.52;4.18;;;10.00;99.90;;;;;;4997304;28;20030;-69
2022/03/31 01:18:36;;;;;;;11.63;3.65;;;;;;;;;;4997694;28;20030;-67
2022/03/31 01:21:02;;;;;;;5.90;4.15;;;;;;;;;;4998414;28;20049;-69
2022/03/31 01:23:28;;;;;;;10.30;4.50;;;;;;;;;;4995584;28;20057;-67
2022/03/31 01:25:54;;;;;;;22.33;5.50;;;;;;;;;;4996123;28;20026;-67
2022/03/31 01:28:20;;;;;;;12.13;6.60;;;;;;;;;;4997097;28;20099;-69
2022/03/31 01:30:46;;;;;;;15.27;5.25;;;;;;;;;;4997570;28;20030;-68
2022/03/31 01:33:14;;;;;;;10.45;4.60;;;;;;;;;;4998069;28;20113;-68
2022/03/31 01:35:40;;;;;;;5.95;2.55;;;;;;;;;;4997300;28;20034;-68
2022/03/31 01:38:07;;;;;;;6.88;3.75;;;;;;;;;;4997002;28;20767;-68
2022/03/31 01:40:34;;;;;;;7.05;2.20;;;;;;;;;;4997417;28;20403;-69
2022/03/31 01:43:00;;;;;;;5.63;2.78;;;;;;;;;;4996068;28;20110;-68
2022/03/31 01:45:26;;;;;;;7.23;3.17;;;;;;;;;;4997777;28;20040;-68
2022/03/31 01:47:52;;;;;;;9.38;3.42;;;;;;;;;;4996288;28;20556;-68
2022/03/31 01:50:18;;;;;;;6.28;3.50;;;;;;;;;;4996580;28;20080;-68
2022/03/31 01:52:44;;;;;;;5.40;3.15;;;;;;;;;;4996505;28;20146;-69
2022/03/31 01:55:11;;;;;;;4.80;2.83;;;;;;;;;;4979798;28;20103;-69
2022/03/31 01:57:37;;;;;;;4.82;3.33;;;;;;;;;;4977342;28;20468;-68
2022/03/31 02:00:05;;;;;;;8.48;4.13;;;;;;;;;;4997495;28;20026;-68
2022/03/31 02:02:31;;;;;;;4.20;3.17;;;;;;;;;;4997108;28;20029;-68
2022/03/31 02:04:57;;;;;;;3.58;2.60;;;;;;;;;;4996319;28;20030;-67
2022/03/31 02:07:23;;;;;;;9.70;3.63;;;;;;;;;;4995985;28;20762;-68
2022/03/31 02:09:49;;;;;;;3.95;2.72;;;;;;;;;;4996353;28;20062;-66
2022/03/31 02:12:15;;;;;;;7.20;3.88;;;;;;;;;;4998072;28;20068;-68
2022/03/31 02:14:41;;;;;;;7.85;2.30;;;9.90;99.90;;;;;;4995692;28;20029;-69
2022/03/31 02:17:13;;;;;;;6.60;3.65;;;;;;;;;;4995941;28;20030;-69
2022/03/31 02:19:39;;;;;;;7.63;3.45;;;;;;;;;;4994400;28;20026;-69
2022/03/31 02:22:06;;;;;;;4.82;3.65;;;;;;;;;;4996323;28;20040;-67
2022/03/31 02:24:34;;;;;;;9.20;2.20;;;;;;;;;;4997550;28;20048;-68
2022/03/31 02:26:59;;;;;;;;;;;;;;;;;;4997022;28;20033;-68
2022/03/31 02:29:26;;;;;;;5.18;2.15;;;;;;;;;;4995473;28;20374;-68
2022/03/31 02:31:52;;;;;;;7.70;3.53;;;;;;;;;;4995777;28;20487;-69
2022/03/31 02:34:18;;;;;;;10.77;3.08;;;;;;;;;;4996083;28;20030;-69
2022/03/31 02:36:44;;;;;;;4.78;2.83;;;;;;;;;;4996007;28;20023;-68
2022/03/31 02:39:11;;;;;;;8.35;3.10;;;;;;;;;;4997585;28;20059;-68
2022/03/31 02:41:37;;;;;;;6.03;3.33;;;9.90;99.90;;;;;;4994621;28;20049;-67
2022/03/31 02:44:03;;;;;;;10.43;3.95;;;;;;;;;;4995798;28;20045;-68
2022/03/31 02:46:29;;;;;;;6.47;4.05;;;;;;;;;;4996254;28;20022;-68
2022/03/31 02:48:56;;;;;;;4.55;3.28;;;;;;;;;;4995723;28;20050;-68
2022/03/31 02:51:25;;;;;;;8.68;3.40;;;9.90;99.90;;;;;;4997319;28;20030;-68
2022/03/31 02:56:37;;;;;;;9.18;4.40;;;;;;;;;;4999541;28;20034;-68
2022/03/31 02:59:13;;;;;;;5.60;3.17;;;;;;;;;;4998987;28;20032;-68
2022/03/31 03:01:39;;;;;;;7.95;3.47;;;;;;;;;;4998844;28;20018;-69
2022/03/31 03:04:08;;;;;;;5.43;2.63;;;;;;;;;;4998672;28;20029;-68
2022/03/31 03:06:34;;;;;;;7.82;3.63;;;;;;;;;;4999404;28;20022;-68
2022/03/31 03:09:00;;;;;;;6.15;2.80;;;;;;;;;;5000621;28;20035;-70
2022/03/31 03:11:26;;;;;;;8.50;3.78;;;;;;;;;;4999597;28;20050;-68
2022/03/31 03:13:52;;;;;;;8.73;3.15;;;;;;;;;;4998859;28;20109;-68
2022/03/31 03:16:18;;;;;;;7.70;3.15;;;;;;;;;;4999719;28;20035;-68
2022/03/31 03:18:44;;;;;;;8.82;3.42;;;;;;;;;;4999148;28;20083;-69
2022/03/31 03:21:10;;;;;;;7.47;3.75;;;;;;;;;;5000031;28;20022;-68
2022/03/31 03:23:37;;;;;;;9.80;3.55;;;;;;;;;;4998610;28;20041;-68
2022/03/31 03:26:03;;;;;;;18.45;7.13;;;;;;;;;;4999939;28;20034;-67
2022/03/31 03:28:30;;;;;;;6.63;3.55;;;;;;;;;;4999355;28;20030;-68
2022/03/31 03:30:56;;;;;;;22.70;2.83;;;;;;;;;;4999236;28;20057;-69
2022/03/31 03:33:22;;;;;;;10.20;2.83;;;;;;;;;;5000371;28;20036;-69
2022/03/31 03:35:48;;;;;;;6.57;2.88;;;;;;;;;;4999487;28;20022;-68
2022/03/31 03:38:14;;;;;;;7.05;2.67;;;;;;;;;;4998432;28;20045;-68
2022/03/31 03:40:41;;;;;;;6.22;3.65;;;;;;;;;;4998800;28;20116;-69
2022/03/31 03:43:09;;;;;;;9.05;4.15;;;;;;;;;;4998306;28;20038;-68
2022/03/31 03:45:36;;;;;;;11.95;3.38;;;;;;;;;;4999919;28;20736;-68
2022/03/31 03:48:03;;;;;;;7.15;3.80;;;9.90;99.90;;;;;;4999728;28;20030;-69
2022/03/31 03:50:28;;;;;;;6.60;3.67;;;9.90;99.90;;;;;;4999203;28;20034;-68
2022/03/31 03:52:54;;;;;;;7.90;4.15;;;;;;;;;;4995913;28;20341;-68
2022/03/31 03:55:21;;;;;;;7.10;3.70;;;;;;;;;;4996529;28;20196;-69
2022/03/31 03:57:47;;;;;;;4.40;2.75;;;;;;;;;;4994753;28;20030;-68
2022/03/31 04:00:13;;;;;;;9.75;4.47;;;;;;;;;;4995760;28;20022;-68
2022/03/31 04:02:40;;;;;;;17.88;4.47;;;;;;;;;;4996017;28;20525;-68
2022/03/31 04:05:07;;;;;;;6.35;3.30;;;9.90;99.90;;;;;;4997198;28;20459;-68
2022/03/31 04:07:33;;;;;;;14.15;6.07;;;;;;;;;;4998452;28;20673;-67
2022/03/31 04:09:59;;;;;;;6.05;3.15;;;;;;;;;;4999239;28;20040;-69
2022/03/31 04:12:25;;;;;;;4.45;2.95;;;;;;;;;;5000375;28;20034;-68
2022/03/31 04:14:51;;;;;;;17.92;4.90;;;;;;;;;;4980601;28;20059;-68
2022/03/31 04:17:17;;;;;;;6.45;3.03;;;;;;;;;;4998188;28;20026;-68
2022/03/31 04:19:43;;;;;;;7.97;3.17;;;;;;;;;;4998390;28;20026;-68
2022/03/31 04:22:10;;;;;;;5.13;3.72;;;;;;;;;;4996705;28;20038;-68
2022/03/31 04:24:36;;;;;;;6.85;3.75;;;;;;;;;;4998970;28;20034;-68
2022/03/31 04:27:02;;;;;;;13.57;4.22;;;;;;;;;;4998368;28;20029;-67
2022/03/31 04:29:28;;;;;;;9.07;3.13;;;9.50;99.90;;;;;;4998172;28;20045;-68
2022/03/31 04:31:54;;;;;;;8.23;3.58;;;;;;;;;;4997804;28;20030;-68
2022/03/31 04:34:20;;;;;;;5.55;2.72;;;;;;;;;;4998435;28;20149;-68
2022/03/31 04:36:46;;;;;;;6.35;2.35;;;;;;;;;;4998006;28;20407;-68
2022/03/31 04:39:13;;;;;;;5.40;3.10;;;;;;;;;;4999804;28;20028;-68
2022/03/31 04:41:43;;;;;;;7.72;3.33;;;9.90;99.90;;;;;;4998514;28;20022;-68
2022/03/31 04:44:09;;;;;;;5.95;3.03;;;;;;;;;;4998334;28;20030;-68
2022/03/31 04:46:35;;;;;;;7.40;2.80;;;10.10;99.90;;;;;;4980630;28;20027;-68
2022/03/31 04:49:02;;;;;;;15.43;4.07;;;;;;;;;;4997579;28;20057;-70
2022/03/31 04:51:28;;;;;;;15.02;5.80;;;;;;;;;;5000065;28;20027;-67
2022/03/31 04:53:54;;;;;;;12.95;4.60;;;;;;;;;;4998071;28;20414;-69
2022/03/31 04:56:20;;;;;;;6.97;3.20;;;;;;;;;;4997569;28;20050;-69
2022/03/31 04:58:46;;;;;;;6.18;2.95;;;10.00;99.90;;;;;;4998499;28;20030;-67
2022/03/31 05:01:12;;;;;;;7.85;4.53;;;;;;;;;;4997860;28;20389;-67
2022/03/31 05:03:39;;;;;;;9.77;3.38;;;9.90;99.90;;;;;;4996316;28;20034;-67
2022/03/31 05:06:05;;;;;;;8.43;3.63;;;;;;;;;;4999558;28;20034;-68
2022/03/31 05:08:31;;;;;;;6.45;3.90;;;;;;;;;;4997573;28;20069;-68
2022/03/31 05:10:57;;;;;;;13.52;5.88;;;;;;;;;;4997677;28;20053;-69
2022/03/31 05:13:24;;;;;;;7.95;3.85;;;;;;;;;;4996701;28;20157;-68
2022/03/31 05:15:51;;;;;;;13.80;3.92;;;;;;;;;;4997821;28;20495;-68
2022/03/31 05:18:17;;;;;;;8.32;3.05;;;;;;;;;;4999471;28;20076;-68
2022/03/31 05:20:43;;;;;;;6.90;4.30;;;;;;;;;;4996968;28;20026;-68
2022/03/31 05:23:10;;;;;;;9.32;3.78;;;;;;;;;;4996501;28;20060;-68
2022/03/31 05:25:36;;;;;;;5.70;2.45;;;;;;;;;;4997354;28;20062;-68
2022/03/31 05:28:02;;;;;;;13.02;3.78;;;;;;;;;;4996886;28;20038;-69
2022/03/31 05:30:28;;;;;;;9.40;4.18;;;9.60;99.90;;;;;;4998754;28;20515;-68
2022/03/31 05:32:54;;;;;;;6.10;3.55;;;;;;;;;;4996488;28;20050;-68
2022/03/31 05:35:21;;;;;;;6.72;3.92;;;;;;;;;;4997094;28;20180;-68
2022/03/31 05:37:47;;;;;;;16.30;4.03;;;;;;;;;;4997513;28;20037;-67
2022/03/31 05:40:14;;;;;;;10.45;3.50;;;;;;;;;;4996892;28;20549;-68
2022/03/31 05:42:40;;;;;;;7.25;3.25;;;;;;;;;;4997554;28;20037;-68
2022/03/31 05:45:09;;;;;;;6.13;3.30;;;;;;;;;;4997516;28;20050;-68
2022/03/31 05:47:35;;;;;;;9.40;3.47;;;;;;;;;;4996931;28;20125;-68
2022/03/31 05:50:03;;;;;;;9.27;3.67;;;;;;;;;;4995259;28;20026;-69
2022/03/31 05:52:28;;;;;;;8.57;4.68;;;9.90;99.90;;;;;;4997192;28;20034;-68
2022/03/31 05:54:55;;;;;;;17.83;4.40;;;;;;;;;;4997260;28;20046;-67
2022/03/31 05:57:21;;;;;;;16.00;4.90;;;;;;;;;;4998771;28;20030;-69
2022/03/31 05:59:46;;;;;;;4.97;3.08;;;9.00;99.90;;;;;;4996046;28;20040;-68
2022/03/31 06:02:12;;;;;;;5.95;3.58;;;;;;;;;;4992687;28;20518;-68
2022/03/31 06:04:38;;;;;;;7.63;3.70;;;8.90;99.90;;;;;;4996760;28;20080;-68
2022/03/31 06:07:05;;;;;;;11.18;4.63;;;8.90;99.90;;;;;;4997172;28;20026;-69
2022/03/31 06:09:31;;;;;;;9.25;3.35;;;;;;;;;;4997446;28;20118;-69
2022/03/31 06:11:57;;;;;;;13.15;4.40;;;;;;;;;;4996099;28;20109;-69
2022/03/31 06:14:23;;;;;;;7.65;3.35;;;;;;;;;;4995815;28;20041;-70
2022/03/31 06:16:49;;;;;;;17.17;4.97;;;;;;;;;;4994533;28;20022;-68
2022/03/31 06:19:15;;;;;;;7.85;3.63;;;;;;;;;;4994761;28;20052;-67
2022/03/31 06:21:42;;;;;;;5.95;3.45;;;;;;;;;;4996432;28;20045;-69
2022/03/31 06:24:08;;;;;;;8.18;3.65;;;;;;;;;;4997685;28;20050;-68
2022/03/31 06:26:34;;;;;;;7.10;4.18;;;;;;;;;;4995596;28;20169;-69
2022/03/31 06:29:01;;;;;;;7.47;3.28;;;;;;;;;;4993643;28;20120;-68
2022/03/31 06:31:27;;;;;;;6.90;3.65;;;;;;;;;;4996056;28;20084;-68
2022/03/31 06:33:53;;;;;;;6.82;3.78;;;;;;;;;;4996422;28;20034;-68
2022/03/31 06:36:20;;;;;;;9.30;3.05;;;;;;;;;;4997919;28;20049;-68
2022/03/31 06:38:46;;;;;;;13.32;3.20;;;10.10;99.90;;;;;;4995740;28;20034;-68
2022/03/31 06:41:15;;;;;;;9.32;4.00;;;;;;;;;;4996575;28;20037;-69
2022/03/31 06:43:42;;;;;;;7.25;3.58;;;;;;;;;;4995874;28;20035;-70
2022/03/31 06:46:09;;;;;;;7.60;3.65;;;;;;;;;;4996043;28;20753;-67
2022/03/31 06:48:36;;;;;;;10.60;3.87;;;;;;;;;;4979481;28;20092;-69
2022/03/31 06:51:03;;;;;;;11.40;3.97;;;10.50;99.90;;;;;;4996979;28;20292;-68
2022/03/31 06:53:29;;;;;;;8.18;4.30;;;;;;;;;;4995447;28;20054;-69
2022/03/31 06:55:55;;;;;;;15.27;6.38;;;;;;;;;;4996607;28;20026;-69
2022/03/31 06:58:25;;;;;;;13.02;5.53;;;;;;;;;;4996144;28;20031;-68
2022/03/31 07:00:51;;;;;;;12.63;4.97;;;;;;;;;;4996189;28;20056;-69
2022/03/31 07:03:17;;;;;;;17.95;6.00;;;;;;;;;;4996663;28;20031;-68
2022/03/31 07:05:43;;;;;;;9.20;4.55;;;;;;;;;;4994552;28;20583;-68
2022/03/31 07:08:10;;;;;;;15.68;6.97;;;;;;;;;;4980924;28;20115;-68
2022/03/31 07:10:36;;;;;;;20.33;6.05;;;;;;;;;;4995193;28;22232;-68
2022/03/31 07:13:02;;;;;;;11.52;4.70;;;;;;;;;;4995304;28;20034;-69
2022/03/31 07:15:28;;;;;;;10.18;4.68;;;;;;;;;;4997589;28;20026;-68
2022/03/31 07:17:55;;;;;;;8.88;4.50;;;;;;;;;;4995123;28;20105;-68
2022/03/31 07:20:24;;;;;;;19.80;5.90;;;;;;;;;;4995753;28;20570;-69
2022/03/31 07:22:50;;;;;;;7.50;3.53;;;;;;;;;;4994307;28;20030;-68
2022/03/31 07:25:17;;;;;;;17.15;4.20;;;;;;;;;;4995901;28;20030;-68
2022/03/31 07:27:44;;;;;;;11.57;5.37;;;;;;;;;;4996208;28;20084;-68
2022/03/31 07:30:11;;;;;;;9.93;5.45;;;;;;;;;;4995972;28;20483;-68
2022/03/31 07:32:45;;;;;;;14.05;4.03;;;;;;;;;;4996239;28;20033;-68
2022/03/31 07:35:11;;;;;;;5.63;3.58;;;;;;;;;;4981693;28;20065;-68
2022/03/31 07:37:37;;;;;;;19.48;5.40;;;;;;;;;;4996247;28;20038;-68
2022/03/31 07:40:04;;;;;;;11.88;4.10;;;;;;;;;;4998381;28;20034;-68
2022/03/31 07:42:30;;;;;;;6.55;3.63;;;;;;;;;;5003113;28;20105;-68
2022/03/31 07:44:56;;;;;;;7.00;4.07;;;;;;;;;;5000918;28;20038;-68
2022/03/31 07:47:22;;;;;;;11.88;4.40;;;;;;;;;;5000714;28;20802;-67
2022/03/31 07:49:49;;;;;;;5.63;3.00;;;;;;;;;;4998110;28;20048;-68
2022/03/31 07:52:15;;;;;;;11.13;3.60;;;;;;;;;;4999328;28;20013;-67
2022/03/31 07:54:42;;;;;;;7.07;3.50;;;;;;;;;;4997473;28;20057;-68
2022/03/31 07:57:08;;;;;;;7.82;4.22;;;11.20;99.90;;;;;;4999996;28;20026;-68
2022/03/31 07:59:34;;;;;;;11.27;3.58;;;;;;;;;;4999080;28;20057;-69
2022/03/31 08:02:00;;;;;;;7.35;4.18;;;;;;;;;;4986257;28;20396;-69
2022/03/31 08:04:27;;;;;;;9.95;3.13;;;;;;;;;;4997309;28;20033;-67
2022/03/31 08:06:53;;;;;;;9.55;3.97;;;;;;;;;;4997509;28;20554;-68
2022/03/31 08:09:21;;;;;;;10.75;3.97;;;;;;;;;;5000315;28;20050;-67
2022/03/31 08:11:47;;;;;;;;;;;;;;;;;;4998536;28;20026;-69
2022/03/31 08:14:16;;;;;;;10.48;5.13;;;;;;;;;;4998692;28;20298;-68
2022/03/31 08:16:46;;;;;;;14.95;5.90;;;;;;;;;;4998766;28;20064;-68
2022/03/31 08:19:12;;;;;;;13.40;4.38;;;;;;;;;;4998134;28;20113;-69
2022/03/31 08:21:38;;;;;;;13.40;4.80;;;11.40;99.90;;;;;;4999778;28;20041;-68
2022/03/31 08:24:04;;;;;;;7.15;4.28;;;;;;;;;;4997627;28;20034;-67
2022/03/31 08:26:30;;;;;;;11.73;4.88;;;11.40;99.90;;;;;;4997919;28;20486;-68
2022/03/31 08:28:56;;;;;;;12.15;5.35;;;;;;;;;;4996812;28;20030;-68
2022/03/31 08:31:22;;;;;;;14.27;5.00;;;;;;;;;;4998716;28;20281;-68
2022/03/31 08:33:48;;;;;;;23.20;5.60;;;;;;;;;;4998649;28;20384;-68
2022/03/31 08:36:14;;;;;;;14.23;4.07;;;;;;;;;;4999725;28;20101;-69
2022/03/31 08:38:40;;;;;;;10.70;4.43;;;;;;;;;;4980713;28;20046;-67
2022/03/31 08:41:06;;;;;;;10.57;5.03;;;;;;;;;;4997479;28;20463;-68
2022/03/31 08:43:33;;;;;;;7.85;4.40;;;;;;;;;;4998438;28;20029;-67
2022/03/31 08:45:58;;;;;;;8.40;3.70;;;11.90;99.90;;;;;;4998845;28;20033;-68
2022/03/31 08:48:26;;;;;;;11.93;3.33;;;;;;;;;;4997936;28;20419;-69
2022/03/31 08:50:53;;;;;;;13.18;3.65;;;;;;;;;;4997229;28;20030;-69
2022/03/31 08:53:19;;;;;;;10.90;3.33;;;;;;;;;;4998206;28;20080;-68
2022/03/31 08:55:45;;;;;;;8.93;2.78;;;;;;;;;;4980548;28;20657;-69
2022/03/31 08:58:11;;;;;;;7.80;3.83;;;;;;;;;;4997000;28;20447;-68
2022/03/31 09:00:38;;;;;;;8.85;2.65;;;;;;;;;;4999070;28;21021;-69
2022/03/31 09:03:05;;;;;;;8.20;3.05;;;;;;;;;;4998373;28;20081;-69
2022/03/31 09:05:38;;;;;;;6.22;3.45;;;;;;;;;;4996274;28;20032;-69
2022/03/31 09:08:05;;;;;;;9.98;3.88;;;;;;;;;;4996681;28;20511;-68
2022/03/31 09:10:39;;;;;;;13.10;4.93;;;;;;;;;;4996772;28;20423;-68
2022/03/31 09:13:17;;;;;;;17.30;4.13;;;;;;;;;;4996672;28;20074;-69
2022/03/31 09:15:47;;;;;;;3.47;1.75;;;;;;;;;;4997557;28;20032;-68
2022/03/31 09:18:16;;;;;;;13.52;3.25;;;;;;;;;;4999440;28;20636;-68
2022/03/31 09:20:43;;;;;;;3.00;1.38;;;;;;;;;;4996019;28;20052;-67
2022/03/31 09:23:15;;;;;;;1.98;1.20;;;;;;;;;;4996660;28;20038;-67
2022/03/31 09:25:41;;;;;;;2.63;2.13;;;;;;;;;;4995394;28;20599;-68
2022/03/31 09:28:14;;;;;;;4.10;1.58;;;;;;;;;;4997373;28;20128;-69
2022/03/31 09:30:43;;;;;;;5.05;2.17;;;;;;;;;;4997591;28;20029;-69
2022/03/31 09:33:09;;;;;;;3.58;1.83;;;;;;;;;;4999277;28;20030;-67
2022/03/31 09:35:35;;;;;;;3.70;2.10;;;;;;;;;;4997580;28;20056;-68
2022/03/31 09:38:11;;;;;;;6.68;1.75;;;;;;;;;;4997162;28;20064;-69
2022/03/31 09:40:37;;;;;;;4.53;3.22;;;;;;;;;;4997376;28;20030;-67
2022/03/31 09:43:03;;;;;;;5.47;2.70;;;;;;;;;;4997444;28;20038;-69
2022/03/31 09:45:38;;;;;;;5.82;2.53;;;;;;;;;;4998369;28;20621;-68
2022/03/31 09:48:04;;;;;;;2.97;1.48;;;10.30;99.00;;;;;;4999917;28;20124;-67
2022/03/31 09:50:34;;;;;;;4.18;2.33;;;;;;;;;;4998712;28;20030;-69
2022/03/31 09:53:00;;;;;;;4.85;2.83;;;;;;;;;;4996418;28;20049;-68
2022/03/31 09:55:26;;;;;;;3.45;2.15;;;;;;;;;;4997055;28;20038;-69
2022/03/31 09:57:53;;;;;;;4.65;2.17;;;;;;;;;;4997142;28;20113;-68
2022/03/31 10:00:21;;;;;;;6.70;2.77;;;;;;;;;;4997613;28;20028;-69
2022/03/31 10:02:47;;;;;;;5.57;3.05;;;;;;;;;;4994469;28;20116;-67
2022/03/31 10:05:15;;;;;;;9.35;2.90;;;;;;;;;;4978610;28;20065;-69
2022/03/31 10:07:41;;;;;;;7.75;3.25;;;;;;;;;;4996253;28;20501;-68
2022/03/31 10:10:08;;;;;;;5.15;3.00;;;;;;;;;;4996746;28;20050;-68
2022/03/31 10:12:38;;;;;;;3.55;2.60;;;;;;;;;;4997812;28;20108;-68
2022/03/31 10:15:10;;;;;;;4.75;2.42;;;;;;;;;;4996650;28;20038;-69
2022/03/31 10:17:36;;;;;;;3.60;2.50;;;;;;;;;;4996668;28;20022;-68
2022/03/31 10:20:13;;;;;;;6.00;3.55;;;;;;;;;;4996344;28;20113;-68
2022/03/31 10:25:35;;;;;;;6.30;2.80;;;;;;;;;;4996961;28;20109;-69
2022/03/31 10:28:08;;;;;;;6.53;2.88;;;;;;;;;;4996232;28;20518;-68
2022/03/31 10:30:34;;;;;;;11.55;3.10;;;;;;;;;;4997794;28;20030;-68
2022/03/31 10:33:04;;;;;;;13.82;3.47;;;;;;;;;;4996133;28;20019;-67
2022/03/31 10:35:34;;;;;;;4.97;2.80;;;;;;;;;;4982888;28;20408;-68
2022/03/31 10:38:27;;;;;;;5.82;3.00;;;;;;;;;;4996353;28;20018;-68
2022/03/31 10:41:00;;;;;;;9.98;4.30;;;;;;;;;;4992932;28;20612;-68
2022/03/31 10:43:27;;;;;;;9.70;4.38;;;;;;;;;;4995376;28;20149;-67
2022/03/31 10:45:55;;;;;;;5.88;4.00;;;;;;;;;;4996754;28;20126;-68
2022/03/31 10:48:22;;;;;;;8.13;3.55;;;;;;;;;;4997656;28;20092;-68
2022/03/31 10:50:59;;;;;;;11.48;3.22;;;;;;;;;;4995605;28;20053;-68
2022/03/31 10:53:29;;;;;;;9.95;6.25;;;;;;;;;;4995054;28;20058;-68
2022/03/31 10:55:55;;;;;;;9.80;3.42;;;;;;;;;;4995388;28;20038;-68
2022/03/31 10:58:26;;;;;;;7.63;3.58;;;;;;;;;;4995017;28;20524;-68
2022/03/31 11:00:55;;;;;;;7.30;3.78;;;;;;;;;;4996136;28;20038;-68
2022/03/31 11:03:22;;;;;;;7.10;3.38;;;;;;;;;;4997095;28;20033;-68
2022/03/31 11:05:48;;;;;;;5.72;2.83;;;9.60;97.60;;;;;;4995112;28;20442;-68
2022/03/31 11:08:17;;;;;;;9.75;4.15;;;;;;;;;;4996185;28;20399;-68
2022/03/31 11:10:49;;;;;;;11.95;4.20;;;;;;;;;;4995111;28;20040;-70
2022/03/31 11:13:16;;;;;;;10.48;4.72;;;;;;;;;;4996167;28;20030;-68
2022/03/31 11:15:46;;;;;;;15.52;4.60;;;9.30;99.90;;;;;;4999059;28;20047;-68
2022/03/31 11:18:12;;;;;;;13.38;5.68;;;;;;;;;;5001069;28;20084;-69
2022/03/31 11:20:38;;;;;;;8.05;3.95;;;9.30;99.90;;;;;;4981975;28;20234;-69
2022/03/31 11:23:06;;;;;;;11.75;5.50;;;9.10;99.60;;;;;;4999611;28;20041;-69
2022/03/31 11:25:33;;;;;;;8.27;4.32;;;;;;;;;;4999203;28;20037;-69
2022/03/31 11:28:07;;;;;;;8.98;5.35;;;9.50;98.10;;;;;;4999157;28;21407;-67
2022/03/31 11:30:33;;;;;;;10.52;4.15;;;;;;;;;;5000726;28;20116;-67
2022/03/31 11:33:00;;;;;;;12.82;6.00;;;;;;;;;;4999550;28;20515;-68
2022/03/31 11:35:27;;;;;;;11.35;5.60;;;;;;;;;;4993388;28;20519;-72
2022/03/31 11:38:03;;;;;;;15.83;5.57;;;;;;;;;;4996786;28;20514;-69
2022/03/31 11:40:29;;;;;;;9.23;4.53;;;;;;;;;;4997717;28;20293;-70
2022/03/31 11:42:55;;;;;;;11.77;5.15;;;;;;;;;;4997822;28;20023;-67
2022/03/31 11:45:35;;;;;;;8.55;3.58;;;;;;;;;;4999008;28;20400;-67
2022/03/31 11:48:05;;;;;;;8.02;3.83;;;;;;;;;;4996516;28;20103;-72
2022/03/31 11:50:32;;;;;;;11.48;4.40;;;;;;;;;;4996937;28;20065;-70
2022/03/31 11:53:00;;;;;;;11.77;5.78;;;;;;;;;;4996791;28;20062;-71
2022/03/31 11:55:27;;;;;;;;;;;;;;;;;;4997181;28;20180;-69
2022/03/31 11:57:56;;;;;;;9.43;5.25;;;;;;;;;;4996460;28;20392;-72
2022/03/31 12:00:22;;;;;;;10.60;6.43;;;;;;;;;;4997983;28;20053;-70
2022/03/31 12:02:59;;;;;;;13.32;4.80;;;;;;;;;;4997781;28;20105;-72
2022/03/31 12:05:25;;;;;;;17.67;6.03;;;;;;;;;;4996620;28;20446;-75
2022/03/31 12:07:52;;;;;;;15.15;6.55;;;10.20;95.50;;;;;;4995099;28;20124;-69
2022/03/31 12:10:18;;;;;;;18.60;6.55;;;;;;;;;;4997646;28;20080;-72
2022/03/31 12:12:51;;;;;;;17.23;7.53;;;;;;;;;;4998351;28;20042;-73
2022/03/31 12:15:28;;;;;;;18.75;8.23;;;;;;;;;;4998368;28;20808;-72
2022/03/31 12:17:57;;;;;;;26.88;10.80;;;;;;;;;;4993895;28;20026;-73
2022/03/31 12:20:23;;;;;;;27.90;9.65;;;;;;;;;;4997510;28;20101;-72
2022/03/31 12:22:49;;;;;;;25.77;11.20;;;;;;;;;;4998153;28;20041;-71
2022/03/31 12:25:26;;;;;;;28.02;10.63;;;;;;;;;;4990955;28;20084;-69
2022/03/31 12:27:51;;;;;;;20.70;9.90;;;;;;;;;;4990700;28;20034;-71
2022/03/31 12:30:18;;;;;;;25.80;11.25;;;;;;;;;;4998177;28;20029;-72
2022/03/31 12:32:48;;;;;;;20.70;9.48;;;;;;;;;;4995830;28;20270;-70
2022/03/31 12:35:14;;;;;;;26.17;9.38;;;;;;;;;;4996066;28;20026;-72
2022/03/31 12:37:42;;;;;;;29.50;10.32;;;;;;;;;;4996093;28;20396;-71
2022/03/31 12:40:10;;;;;;;26.88;9.30;;;;;;;;;;4995924;28;20469;-72
2022/03/31 12:42:41;;;;;;;23.77;8.80;;;;;;;;;;4997046;28;20029;-74
2022/03/31 12:45:13;;;;;;;22.27;9.43;;;;;;;;;;4995239;28;20270;-72
2022/03/31 12:47:43;;;;;;;18.85;8.15;;;;;;;;;;4993631;28;20045;-71
2022/03/31 12:50:22;;;;;;;18.10;8.85;;;;;;;;;;4991927;28;21235;-71
2022/03/31 12:52:56;;;;;;;23.70;9.77;;;;;;;;;;4993755;28;20034;-71
2022/03/31 12:55:34;;;;;;;24.25;9.35;;;10.20;94.60;;;;;;4995378;28;22526;-72
2022/03/31 12:58:01;;;;;;;21.92;8.25;;;;;;;;;;4995468;28;20034;-70
2022/03/31 13:00:28;;;;;;;27.10;8.50;;;;;;;;;;4979249;28;20030;-70
2022/03/31 13:02:56;;;;;;;24.77;9.30;;;10.10;99.90;;;;;;4996247;28;20030;-69
2022/03/31 13:05:23;;;;;;;21.83;8.45;;;;;;;;;;4994241;28;20511;-69
2022/03/31 13:07:53;;;;;;;20.30;8.35;;;;;;;;;;4995258;28;20042;-71
2022/03/31 13:10:20;;;;;;;25.42;9.20;;;;;;;;;;4980816;28;20050;-73
2022/03/31 13:12:46;;;;;;;32.80;8.25;;;;;;;;;;4992041;28;20568;-68
2022/03/31 13:15:13;;;;;;;26.73;8.98;;;;;;;;;;4991114;28;20034;-71
2022/03/31 13:17:42;;;;;;;15.65;8.48;;;;;;;;;;4991822;28;20519;-72
2022/03/31 13:20:09;;;;;;;14.05;7.00;;;;;;;;;;4989735;28;20034;-72
2022/03/31 13:22:36;;;;;;;22.30;8.45;;;;;;;;;;4992304;28;20499;-72
2022/03/31 13:25:03;;;;;;;23.15;8.68;;;;;;;;;;4992378;28;20026;-71
2022/03/31 13:27:29;;;;;;;22.77;8.07;;;;;;;;;;4995203;28;20023;-71
2022/03/31 13:29:56;;;;;;;19.95;8.73;;;;;;;;;;4985811;28;20033;-69
2022/03/31 13:32:22;;;;;;;24.23;9.35;;;;;;;;;;4990526;28;20087;-68
2022/03/31 13:34:49;;;;;;;27.40;10.68;;;;;;;;;;4989606;28;20129;-70
2022/03/31 13:37:16;;;;;;;21.65;10.38;;;;;;;;;;4991937;28;20050;-71
2022/03/31 13:39:43;;;;;;;18.58;7.13;;;;;;;;;;4986750;28;20030;-72
2022/03/31 13:42:09;;;;;;;23.05;8.52;;;;;;;;;;4992202;28;20029;-73
2022/03/31 13:44:36;;;;;;;14.52;6.18;;;;;;;;;;4992548;28;20025;-68
2022/03/31 13:47:03;;;;;;;16.13;7.28;;;;;;;;;;4992576;28;20038;-73
2022/03/31 13:49:30;;;;;;;15.07;5.35;;;;;;;;;;4984762;28;20037;-71
2022/03/31 13:51:56;;;;;;;21.20;6.80;;;;;;;;;;4991186;28;20034;-71
2022/03/31 13:54:25;;;;;;;16.75;5.72;;;;;;;;;;4992241;28;20324;-73
2022/03/31 13:56:51;;;;;;;23.42;7.32;;;;;;;;;;4992141;28;20061;-71
2022/03/31 14:02:03;;;;;;;15.85;7.00;;;;;;;;;;4991040;28;20032;-65
2022/03/31 14:04:30;;;;;;;13.75;5.65;;;;;;;;;;4989947;28;20092;-65
2022/03/31 14:06:56;;;;;;;17.90;7.85;;;;;;;;;;4992792;28;20458;-66
2022/03/31 14:09:23;;;;;;;15.23;6.85;;;;;;;;;;4987918;28;20109;-66
2022/03/31 14:11:50;;;;;;;14.77;5.28;;;;;;;;;;4990766;28;20030;-66
2022/03/31 14:14:18;;;;;;;16.52;5.88;;;;;;;;;;4989128;28;20081;-65
2022/03/31 14:16:46;;;;;;;;;;;;;;;;;;4993139;28;20119;-66
2022/03/31 14:19:13;;;;;;;12.85;7.18;;;;;;;;;;4988352;28;20484;-67
2022/03/31 14:21:39;;;;;;;15.53;5.53;;;;;;;;;;4990427;28;20030;-65
2022/03/31 14:24:07;;;;;;;13.18;5.80;;;;;;;;;;4990313;28;20327;-66
2022/03/31 14:26:33;;;;;;;14.13;6.60;;;;;;;;;;4991829;28;20026;-64
2022/03/31 14:28:59;;;;;;;12.40;4.95;;;;;;;;;;4988611;28;21787;-66
2022/03/31 14:31:26;;;;;;;12.30;5.85;;;;;;;;;;4989135;28;20046;-66